Time;durP1;ratioP1;P1;durP2;ratioP2;P2;SDS_P1;SDS_P2;PMS_P1;PMS_P2;Temp;Humidity;BMP_temperature;BMP_pressure;BME280_temperature;BME280_humidity;BME280_pressure;Samples;Min_cycle;Max_cycle;Signal;HPM_P1;HPM_P2
2022/09/05 00:02:01;;;;;;;7.45;6.75;;;;;;;21.51;67.28;100613.59;5048388;28;20442;-90
2022/09/05 00:04:46;;;;;;;7.78;7.05;;;;;;;21.56;67.02;100594.66;5045923;28;20091;-89
2022/09/05 00:07:35;;;;;;;8.77;6.68;;;;;;;21.57;67.50;100594.28;5045038;28;20079;-90
2022/09/05 00:10:48;;;;;;;7.65;7.05;;;;;;;21.57;66.92;100593.44;5045043;28;20060;-89
2022/09/05 00:13:40;;;;;;;7.88;7.15;;;;;;;21.54;67.02;100583.66;5049870;28;20131;-90
2022/09/05 00:16:16;;;;;;;10.43;9.57;;;;;;;21.57;67.08;100602.81;5043338;28;20049;-90
2022/09/05 00:19:02;;;;;;;6.70;6.30;;;;;;;21.55;67.17;100593.00;5046131;28;20044;-89
2022/09/05 00:21:58;;;;;;;9.00;7.22;;;;;;;21.46;67.61;100585.41;5043713;28;20059;-86
2022/09/05 00:25:06;;;;;;;7.93;7.28;;;;;;;21.42;67.88;100578.78;5048346;28;20140;-89
2022/09/05 00:28:08;;;;;;;7.47;6.43;;;;;;;20.96;68.19;100520.34;5047180;28;20045;-87
2022/09/05 00:30:58;;;;;;;6.97;6.45;;;;;;;21.28;68.43;100576.22;5044126;28;20804;-88
2022/09/05 00:34:03;;;;;;;9.32;6.55;;;;;;;21.15;68.65;100559.53;5045391;28;20049;-89
2022/09/05 00:36:39;;;;;;;7.60;7.00;;;;;;;21.26;68.24;100561.56;5047969;28;20081;-87
2022/09/05 00:39:14;;;;;;;7.53;6.78;;;;;;;21.15;68.16;100556.69;5052481;28;20132;-87
2022/09/05 00:41:41;;;;;;;10.60;6.80;;;;;;;21.14;68.47;100546.50;5061494;28;20048;-87
2022/09/05 00:44:11;;;;;;;7.63;6.90;;;;;;;21.13;67.70;100540.00;5044498;28;20444;-90
2022/09/05 00:46:48;;;;;;;7.25;6.72;;;;;;;21.09;67.61;100504.13;5051446;28;20056;-90
2022/09/05 00:49:24;;;;;;;8.32;6.82;;;;;;;21.41;67.55;100562.09;5045579;28;20052;-87
2022/09/05 00:51:57;;;;;;;12.13;6.90;;;;;;;21.44;67.38;100559.38;5050303;28;20471;-85
2022/09/05 00:54:43;;;;;;;8.38;6.82;;;;;;;21.41;67.52;100550.72;5045299;28;20140;-88
2022/09/05 00:57:30;;;;;;;7.43;6.72;;;;;;;21.42;67.67;100546.69;5043197;28;20053;-89
2022/09/05 01:00:32;;;;;;;7.95;7.28;;;;;;;21.32;67.86;100547.94;5048519;28;20079;-90
2022/09/05 01:03:23;;;;;;;8.68;7.95;;;;;;;21.25;67.68;100528.66;5049327;28;20132;-90
2022/09/05 01:06:27;;;;;;;10.63;7.45;;;;;;;21.32;68.13;100547.94;5045500;28;20053;-90
2022/09/05 01:09:23;;;;;;;7.82;7.28;;;;;;;21.41;67.73;100543.03;5044879;28;20143;-89
2022/09/05 01:12:12;;;;;;;7.38;6.78;;;;;;;21.32;68.02;100530.91;5028344;28;20088;-91
2022/09/05 01:15:01;;;;;;;7.68;7.13;;;;;;;21.36;68.11;100534.72;5050889;28;20092;-88
2022/09/05 01:17:46;;;;;;;7.60;7.00;;;;;;;21.44;68.02;100535.81;5048186;28;20473;-89
2022/09/05 01:20:28;;;;;;;7.75;7.13;;;;;;;21.40;67.79;100527.19;5057477;28;20045;-89
2022/09/05 01:23:35;;;;;;;8.00;7.20;;;;;;;21.42;67.90;100512.59;5064045;28;20108;-88
2022/09/05 01:26:05;;;;;;;7.72;7.05;;;;;;;21.48;67.70;100523.38;5060802;28;20072;-89
2022/09/05 01:28:49;;;;;;;9.75;8.90;;;;;;;21.59;67.63;100517.22;5045582;28;20115;-86
2022/09/05 01:31:41;;;;;;;7.38;6.47;;;;;;;21.55;67.43;100533.31;5044064;28;20484;-88
2022/09/05 01:34:17;;;;;;;9.07;7.05;;;;;;;21.44;67.46;100519.59;5049624;28;20133;-89
2022/09/05 01:37:10;;;;;;;7.82;7.22;;;;;;;21.46;67.55;100537.09;5047697;28;20099;-87
2022/09/05 01:40:07;;;;;;;7.97;7.30;;;;;;;21.33;67.82;100531.72;5044289;28;20048;-89
2022/09/05 01:42:51;;;;;;;8.80;7.13;;;;;;;21.36;67.71;100529.03;5048907;28;21654;-88
2022/09/05 01:45:29;;;;;;;7.55;7.05;;;;;;;21.21;67.86;100505.00;5052318;28;20135;-87
2022/09/05 01:48:29;;;;;;;9.13;7.20;;;;;;;21.38;67.97;100517.34;5047485;28;20037;-88
2022/09/05 01:51:22;;;;;;;8.98;7.38;;;;;;;21.24;67.96;100512.81;5049192;28;20095;-89
2022/09/05 01:54:08;;;;;;;9.70;7.93;;;;;;;21.28;67.67;100515.75;5035247;28;20048;-88
2022/09/05 01:57:16;;;;;;;7.80;7.25;;;;;;;21.31;67.41;100509.38;5052418;28;20172;-87
2022/09/05 02:00:04;;;;;;;7.57;7.00;;;;;;;21.32;67.48;100510.19;5051732;28;20063;-87
2022/09/05 02:02:50;;;;;;;9.13;7.28;;;;;;;21.29;67.89;100503.22;5051882;28;20103;-87
2022/09/05 02:05:35;;;;;;;7.75;6.95;;;;;;;21.26;67.85;100506.75;5051097;28;20045;-88
2022/09/05 02:08:14;;;;;;;16.90;7.90;;;;;;;21.25;67.93;100525.00;5051438;28;20118;-87
2022/09/05 02:11:00;;;;;;;9.30;7.88;;;;;;;21.06;68.11;100506.53;5058373;28;20052;-84
2022/09/05 02:13:33;;;;;;;7.70;6.68;;;;;;;21.18;67.89;100508.53;5045186;28;20132;-88
2022/09/05 02:16:22;;;;;;;8.45;7.63;;;;;;;21.27;67.60;100509.25;5053348;28;20049;-86
2022/09/05 02:19:07;;;;;;;8.18;7.47;;;;;;;21.32;67.71;100511.03;5056259;28;20502;-89
2022/09/05 02:21:40;;;;;;;8.45;6.63;;;;;;;21.42;67.46;100518.28;5051705;28;20095;-88
2022/09/05 02:24:22;;;;;;;7.85;7.15;;;;;;;21.40;67.58;100512.97;5050247;28;20055;-89
2022/09/05 02:27:04;;;;;;;7.57;7.03;;;;;;;21.37;67.47;100505.16;5035121;28;20136;-86
2022/09/05 02:29:37;;;;;;;7.53;6.93;;;;;;;21.31;67.53;100500.84;5052949;28;20148;-88
2022/09/05 02:32:30;;;;;;;7.30;6.70;;;;;;;21.14;68.17;100506.75;5033291;28;20140;-90
2022/09/05 02:35:06;;;;;;;7.70;7.07;;;;;;;21.13;68.18;100500.25;5051905;28;20041;-90
2022/09/05 02:38:24;;;;;;;8.02;7.20;;;;;;;21.17;67.91;100478.47;5051601;28;20081;-88
2022/09/05 02:41:52;;;;;;;9.55;7.93;;;;;;;21.26;67.71;100498.22;5045652;28;20068;-90
2022/09/05 02:45:11;;;;;;;8.38;7.55;;;;;;;21.28;67.55;100501.56;5052009;28;20415;-88
2022/09/05 02:48:05;;;;;;;7.50;7.00;;;;;;;21.37;67.43;100509.97;5050095;28;20045;-88
2022/09/05 02:50:44;;;;;;;8.00;7.30;;;;;;;21.39;67.38;100508.44;5050054;28;20065;-89
2022/09/05 02:53:33;;;;;;;10.20;7.47;;;;;;;21.33;67.67;100501.31;5049923;28;20515;-87
2022/09/05 02:56:33;;;;;;;7.43;6.65;;;;;;;21.17;67.35;100494.69;5038553;28;20500;-87
2022/09/05 02:59:57;;;;;;;11.82;7.95;;;;;;;21.41;67.16;100503.25;5046977;28;20422;-87
2022/09/05 03:02:36;;;;;;;7.47;6.97;;;;;;;21.38;67.50;100501.13;5040685;28;20157;-89
2022/09/05 03:05:20;;;;;;;14.10;6.38;;;;;;;21.53;66.87;100502.41;5051380;28;20060;-90
2022/09/05 03:08:06;;;;;;;7.78;6.72;;;;;;;21.48;66.94;100512.00;5043466;28;20131;-89
2022/09/05 03:10:53;;;;;;;8.10;6.88;;;;;;;21.51;66.82;100497.09;5050630;28;20079;-86
2022/09/05 03:13:49;;;;;;;8.25;7.43;;;;;;;21.48;66.77;100494.13;5060252;28;20044;-87
2022/09/05 03:16:45;;;;;;;8.80;7.28;;;;;;;21.42;66.77;100493.53;5056563;28;20069;-89
2022/09/05 03:20:05;;;;;;;8.48;7.38;;;;;;;21.06;67.00;100443.22;5047009;28;20051;-88
2022/09/05 03:23:10;;;;;;;8.00;7.38;;;;;;;21.35;67.24;100487.63;5043144;28;20080;-89
2022/09/05 03:25:40;;;;;;;7.35;6.80;;;;;;;21.34;67.17;100491.66;5048519;28;20544;-88
2022/09/05 03:28:31;;;;;;;7.88;6.95;;;;;;;21.34;67.28;100483.13;5044652;28;20076;-87
2022/09/05 03:31:07;;;;;;;9.05;8.15;;;;;;;21.41;67.19;100489.06;5047522;28;20125;-88
2022/09/05 03:34:09;;;;;;;7.43;6.93;;;;;;;21.46;66.99;100468.91;5028465;28;20044;-86
2022/09/05 03:37:11;;;;;;;7.20;6.70;;;;;;;21.42;66.46;100478.50;5026026;28;20045;-89
2022/09/05 03:40:16;;;;;;;7.55;6.95;;;;;;;21.40;66.94;100476.03;5030288;28;20127;-90
2022/09/05 03:42:54;;;;;;;8.95;7.53;;;;;;;21.40;66.75;100473.19;5044086;28;20095;-89
2022/09/05 03:45:45;;;;;;;8.73;7.40;;;;;;;21.51;66.87;100465.03;5049709;28;20483;-87
2022/09/05 03:48:38;;;;;;;7.75;7.05;;;;;;;21.22;66.77;100452.66;5054539;28;20132;-86
2022/09/05 03:51:26;;;;;;;8.00;7.30;;;;;;;21.42;66.75;100481.34;5046917;28;20112;-88
2022/09/05 03:54:31;;;;;;;12.95;7.50;;;;;;;21.44;66.86;100490.34;5046207;28;20529;-87
2022/09/05 03:57:21;;;;;;;8.13;7.50;;;;;;;21.41;67.01;100486.22;5031136;28;20049;-86
2022/09/05 04:00:29;;;;;;;;;;;;;;;21.19;67.51;100475.28;5048260;28;20049;-87
2022/09/05 04:03:08;;;;;;;7.05;6.65;;;;;;;21.32;66.86;100470.44;5042165;28;20048;-85
2022/09/05 04:06:04;;;;;;;9.10;8.23;;;;;;;21.26;66.89;100441.44;5060004;28;20121;-85
2022/09/05 04:09:20;;;;;;;7.25;6.75;;;;;;;21.47;66.46;100467.75;5066131;28;20059;-86
2022/09/05 04:12:16;;;;;;;7.75;7.03;;;;;;;21.42;66.92;100473.66;5041128;28;20147;-88
2022/09/05 04:14:54;;;;;;;7.57;6.85;;;;;;;21.27;66.97;100460.16;5050631;28;20573;-87
2022/09/05 04:17:31;;;;;;;9.40;7.88;;;;;;;21.16;67.52;100458.94;5044835;28;20087;-87
2022/09/05 04:20:07;;;;;;;7.50;7.00;;;;;;;21.11;67.31;100450.69;5051019;28;20099;-84
2022/09/05 04:22:47;;;;;;;7.47;6.95;;;;;;;21.09;67.17;100450.19;5023741;28;20462;-84
2022/09/05 04:25:24;;;;;;;8.02;6.85;;;;;;;20.90;67.71;100423.22;5049290;28;20084;-85
2022/09/05 04:28:02;;;;;;;9.70;8.88;;;;;;;21.12;67.80;100458.00;5046612;28;20076;-88
2022/09/05 04:30:57;;;;;;;7.03;6.38;;;;;;;21.03;67.19;100447.59;5027895;28;20589;-89
2022/09/05 04:33:40;;;;;;;9.98;7.85;;;;;;;21.04;67.37;100440.72;5044501;28;20209;-90
2022/09/05 04:36:19;;;;;;;8.05;7.40;;;;;;;21.06;67.87;100461.09;5038723;28;20147;-88
2022/09/05 04:39:17;;;;;;;10.38;7.65;;;;;;;20.91;67.82;100438.25;5030133;28;20041;-85
2022/09/05 04:42:01;;;;;;;6.82;6.30;;;;;;;20.99;67.14;100437.28;5046739;28;20136;-85
2022/09/05 04:44:32;;;;;;;8.20;7.45;;;;;;;21.21;67.36;100455.88;5042723;28;20072;-86
2022/09/05 04:47:13;;;;;;;8.32;7.57;;;;;;;21.08;67.55;100457.06;5047895;28;20140;-86
2022/09/05 04:49:50;;;;;;;7.13;6.72;;;;;;;21.01;68.07;100464.16;5051122;28;20044;-86
2022/09/05 04:52:19;;;;;;;8.93;8.07;;;;;;;21.18;67.41;100463.09;5051561;28;20049;-88
2022/09/05 04:55:06;;;;;;;8.77;7.95;;;;;;;21.16;67.15;100448.44;5051608;28;20049;-86
2022/09/05 04:57:56;;;;;;;9.13;8.15;;;;;;;20.95;67.24;100425.81;5046025;28;20077;-86
2022/09/05 05:00:39;;;;;;;8.20;7.53;;;;;;;21.00;67.99;100456.81;5033106;28;20057;-85
2022/09/05 05:03:32;;;;;;;8.18;7.47;;;;;;;21.03;67.51;100444.75;5045990;28;20060;-86
2022/09/05 05:06:37;;;;;;;7.50;7.10;;;;;;;21.05;67.61;100453.72;5049476;28;20049;-85
2022/09/05 05:09:34;;;;;;;9.18;7.63;;;;;;;21.19;67.52;100458.25;5049272;28;20051;-88
2022/09/05 05:12:08;;;;;;;7.82;7.32;;;;;;;21.16;67.05;100453.25;5046102;28;20073;-85
2022/09/05 05:15:11;;;;;;;11.93;9.25;;;;;;;21.15;67.49;100454.47;5047892;28;20059;-86
2022/09/05 05:18:29;;;;;;;8.65;7.95;;;;;;;21.33;67.10;100469.25;5033418;28;20041;-87
2022/09/05 05:21:19;;;;;;;7.70;7.20;;;;;;;21.29;67.02;100452.09;5029651;28;20049;-84
2022/09/05 05:23:46;;;;;;;;;;;;;;;21.26;67.23;100458.47;5050081;28;20103;-87
2022/09/05 05:26:25;;;;;;;7.93;7.13;;;;;;;21.37;66.70;100471.06;5051069;28;20035;-88
2022/09/05 05:29:06;;;;;;;8.20;7.35;;;;;;;21.43;66.86;100458.25;5048900;28;20538;-85
2022/09/05 05:31:38;;;;;;;9.82;7.88;;;;;;;21.22;66.80;100455.50;5050263;28;20561;-87
2022/09/05 05:34:17;;;;;;;8.88;7.93;;;;;;;21.26;67.19;100464.16;5045022;28;20059;-87
2022/09/05 05:37:15;;;;;;;9.68;8.45;;;;;;;21.24;67.11;100450.31;5024884;28;20131;-83
2022/09/05 05:39:57;;;;;;;9.10;8.50;;;;;;;21.38;66.93;100467.03;5047432;28;20088;-81
2022/09/05 05:42:24;;;;;;;9.95;9.35;;;;;;;21.44;66.69;100465.63;5050026;28;20106;-84
2022/09/05 05:44:54;;;;;;;9.93;9.25;;;;;;;21.47;66.48;100459.22;5030086;28;20079;-85
2022/09/05 05:47:40;;;;;;;9.18;8.30;;;;;;;21.28;66.65;100456.94;5053086;28;20092;-84
2022/09/05 05:50:09;;;;;;;7.68;7.00;;;;;;;21.34;67.04;100470.91;5039052;28;20446;-82
2022/09/05 05:53:02;;;;;;;10.93;8.38;;;;;;;21.29;67.07;100471.97;5033194;28;20060;-86
2022/09/05 05:55:49;;;;;;;11.05;8.88;;;;;;;21.27;67.04;100477.19;5047085;28;20128;-83
2022/09/05 05:58:37;;;;;;;8.90;8.30;;;;;;;21.23;67.04;100468.56;5046419;28;20056;-86
2022/09/05 06:01:07;;;;;;;10.55;9.63;;;;;;;21.27;67.26;100478.00;5048353;28;20148;-86
2022/09/05 06:04:21;;;;;;;9.70;8.90;;;;;;;21.38;67.05;100484.06;5046510;28;20041;-82
2022/09/05 06:07:21;;;;;;;11.52;10.55;;;;;;;21.17;66.81;100472.81;5043752;28;20080;-85
2022/09/05 06:10:09;;;;;;;10.93;8.73;;;;;;;21.35;66.72;100506.69;5040732;28;20581;-76
2022/09/05 06:13:47;;;;;;;12.20;11.15;;;;;;;21.16;67.06;100507.22;5042621;28;20574;-82
2022/09/05 06:17:11;;;;;;;10.30;9.27;;;;;;;20.94;67.58;100506.47;5011037;28;20434;-79
2022/09/05 06:19:51;;;;;;;9.77;8.88;;;;;;;20.84;68.07;100504.09;5047797;28;20144;-79
2022/09/05 06:22:58;;;;;;;;;;;;;;;20.82;68.15;100512.16;5034889;28;20430;-86
2022/09/05 06:25:31;;;;;;;11.15;8.80;;;;;;;20.94;67.79;100517.00;5046847;28;19967;-82
2022/09/05 06:28:19;;;;;;;11.30;9.27;;;;;;;20.83;67.63;100503.28;5047371;28;20052;-85
2022/09/05 06:31:19;;;;;;;9.55;8.68;;;;;;;20.89;67.76;100520.06;5038380;28;20072;-84
2022/09/05 06:34:21;;;;;;;10.18;9.32;;;;;;;20.85;67.98;100536.13;5050159;28;20052;-82
2022/09/05 06:37:20;;;;;;;10.20;9.27;;;;;;;20.88;67.75;100544.78;5047289;28;20055;-83
2022/09/05 06:40:28;;;;;;;9.68;8.98;;;;;;;20.70;68.14;100517.78;5048180;28;20056;-85
2022/09/05 06:43:26;;;;;;;9.77;9.05;;;;;;;20.61;68.35;100506.50;5042944;28;20114;-80
2022/09/05 06:46:10;;;;;;;12.93;12.00;;;;;;;20.81;68.23;100538.84;5031307;28;20438;-82
2022/09/05 06:49:00;;;;;;;10.43;9.73;;;;;;;20.58;67.87;100502.38;5046376;28;20056;-83
2022/09/05 06:52:05;;;;;;;10.70;9.88;;;;;;;20.88;68.10;100555.31;5042781;28;20392;-83
2022/09/05 06:55:26;;;;;;;12.18;11.23;;;;;;;20.69;68.85;100544.50;5044228;28;20061;-82
2022/09/05 06:58:08;;;;;;;10.45;9.70;;;;;;;20.84;68.54;100538.16;5044981;28;20135;-84
2022/09/05 07:00:48;;;;;;;11.25;10.20;;;;;;;20.69;68.50;100518.97;5031649;28;20152;-83
2022/09/05 07:03:17;;;;;;;;;;;;;;;20.80;68.72;100531.53;5050100;28;20570;-83
2022/09/05 07:05:57;;;;;;;12.27;11.18;;;;;;;20.92;68.44;100544.91;5046384;28;19970;-83
2022/09/05 07:08:25;;;;;;;10.57;9.88;;;;;;;20.86;68.43;100561.34;5045535;28;20080;-83
2022/09/05 07:11:10;;;;;;;13.35;12.55;;;;;;;20.92;68.32;100559.97;5044833;28;20079;-83
2022/09/05 07:14:00;;;;;;;13.10;12.10;;;;;;;20.85;68.46;100561.69;5045608;28;20057;-82
2022/09/05 07:16:49;;;;;;;11.88;10.70;;;;;;;20.88;68.62;100576.00;5027139;28;20470;-85
2022/09/05 07:19:33;;;;;;;13.38;12.45;;;;;;;20.86;68.05;100540.66;5047466;28;20132;-84
2022/09/05 07:22:28;;;;;;;9.57;8.98;;;;;;;20.84;68.36;100546.66;5045825;28;20446;-86
2022/09/05 07:25:22;;;;;;;10.18;9.50;;;;;;;20.85;68.42;100561.69;5047473;28;20084;-85
2022/09/05 07:27:55;;;;;;;11.15;10.30;;;;;;;21.01;68.12;100559.84;5040543;28;20056;-85
2022/09/05 07:30:56;;;;;;;2.40;1.67;;;;;;;20.89;68.27;100556.97;5043442;28;20057;-85
2022/09/05 07:33:28;;;;;;;4.82;2.08;;;;;;;21.03;68.38;100563.19;5044953;28;20063;-88
2022/09/05 07:36:07;;;;;;;3.58;2.38;;;;;;;20.90;67.58;100497.03;5033394;28;20068;-88
2022/09/05 07:38:37;;;;;;;4.25;1.85;;;;;;;21.52;67.66;100564.09;5031692;28;20080;-89
2022/09/05 07:41:30;;;;;;;5.75;2.13;;;;;;;21.86;66.77;100556.28;5044956;28;20462;-85
2022/09/05 07:44:32;;;;;;;3.55;1.52;;;;;;;21.79;66.40;100558.88;5048780;28;20055;-85
2022/09/05 07:47:10;;;;;;;11.82;2.28;;;;;;;21.51;66.25;100519.00;5041055;28;20144;-83
2022/09/05 07:49:39;;;;;;;3.42;2.20;;;;;;;21.69;66.18;100556.53;5047240;28;20068;-85
2022/09/05 07:52:27;;;;;;;11.52;2.92;;;;;;;21.51;65.73;100522.66;5045780;28;20060;-81
2022/09/05 07:55:28;;;;;;;5.22;1.58;;;;;;;21.50;65.99;100560.81;5046346;28;20060;-80
2022/09/05 07:58:19;;;;;;;7.10;2.10;;;;;;;21.38;66.26;100545.75;5045036;28;20053;-80
2022/09/05 08:00:51;;;;;;;6.65;2.40;;;;;;;21.24;66.48;100552.56;5044222;28;20099;-83
2022/09/05 08:03:25;;;;;;;5.53;1.85;;;;;;;21.34;66.37;100565.50;5044709;28;20056;-85
2022/09/05 08:05:54;;;;;;;4.68;2.13;;;;;;;21.24;66.29;100537.53;5049153;28;20053;-84
2022/09/05 08:08:26;;;;;;;6.37;2.27;;;;;;;21.38;65.89;100532.38;5046011;28;20056;-84
2022/09/05 08:11:08;;;;;;;4.63;1.38;;;;;;;21.39;66.09;100530.34;5051306;28;20350;-85
2022/09/05 08:14:01;;;;;;;6.22;5.72;;;;;;;21.66;66.00;100575.09;5027638;28;20049;-86
2022/09/05 08:16:48;;;;;;;5.72;2.17;;;;;;;21.57;65.69;100559.34;5042906;28;20052;-88
2022/09/05 08:20:00;;;;;;;7.20;2.10;;;;;;;21.60;65.41;100567.16;5046305;28;20049;-78
2022/09/05 08:22:51;;;;;;;4.65;2.20;;;;;;;21.33;65.36;100537.41;5045143;28;20059;-79
2022/09/05 08:25:24;;;;;;;4.45;1.73;;;;;;;21.51;65.42;100551.09;5044390;28;20574;-84
2022/09/05 08:28:20;;;;;;;6.03;2.03;;;;;;;21.60;65.66;100570.00;5029934;28;20675;-80
2022/09/05 08:30:58;;;;;;;5.88;1.80;;;;;;;21.40;65.66;100561.25;5045989;28;20044;-80
2022/09/05 08:33:32;;;;;;;4.22;1.55;;;;;;;21.60;65.20;100570.84;5044829;28;20084;-77
2022/09/05 08:36:01;;;;;;;5.75;2.72;;;;;;;21.65;65.56;100578.31;5044864;28;20053;-76
2022/09/05 08:38:33;;;;;;;7.22;2.50;;;;;;;21.43;65.55;100573.91;5029828;28;20090;-76
2022/09/05 08:41:24;;;;;;;5.18;1.73;;;;;;;21.43;66.42;100574.72;5047013;28;20056;-74
2022/09/05 08:44:23;;;;;;;3.97;1.98;;;;;;;21.19;66.32;100557.63;5044743;28;20053;-74
2022/09/05 08:47:27;;;;;;;8.45;1.80;;;;;;;21.44;66.34;100579.25;5046474;28;20049;-73
2022/09/05 08:50:28;;;;;;;4.10;1.85;;;;;;;21.57;65.92;100563.03;5046475;28;20049;-73
2022/09/05 08:53:08;;;;;;;5.55;1.52;;;;;;;21.49;65.99;100592.38;5046310;28;20084;-74
2022/09/05 08:55:54;;;;;;;;;;;;;;;21.26;67.10;100597.63;5035451;28;20136;-73
2022/09/05 08:58:43;;;;;;;6.07;1.75;;;;;;;21.06;67.83;100594.53;5051332;28;20291;-76
2022/09/05 09:01:40;;;;;;;4.15;2.03;;;;;;;20.85;67.65;100573.88;5048975;28;20136;-72
2022/09/05 09:04:33;;;;;;;4.40;1.10;;;;;;;20.77;68.74;100598.31;5050191;28;20059;-73
2022/09/05 09:07:19;;;;;;;5.18;1.90;;;;;;;20.77;68.71;100608.84;5051302;28;20059;-74
2022/09/05 09:10:46;;;;;;;4.57;1.30;;;;;;;20.68;68.71;100576.88;5050869;28;20057;-74
2022/09/05 09:13:19;;;;;;;2.42;1.35;;;;;;;20.72;69.31;100603.41;5044979;28;20084;-74
2022/09/05 09:16:03;;;;;;;6.40;2.45;;;;;;;20.76;69.32;100595.84;5045190;28;20053;-73
2022/09/05 09:18:50;;;;;;;4.30;1.60;;;;;;;20.67;69.94;100600.75;5051868;28;20057;-75
2022/09/05 09:21:33;;;;;;;7.32;2.20;;;;;;;20.37;70.84;100597.97;5044484;28;20139;-73
2022/09/05 09:23:59;;;;;;;4.78;1.65;;;;;;;20.23;71.62;100618.09;5051115;28;20539;-73
2022/09/05 09:26:41;;;;;;;5.47;1.83;;;;;;;20.22;71.66;100604.28;5054094;28;20132;-73
2022/09/05 09:29:11;;;;;;;10.02;1.92;;;;;;;20.01;72.61;100573.91;5050151;28;20559;-73
2022/09/05 09:32:13;;;;;;;2.47;1.67;;;;;;;20.05;73.91;100610.88;5050930;28;20427;-73
2022/09/05 09:35:14;;;;;;;2.75;1.90;;;;;;;20.10;73.69;100616.34;5051284;28;20136;-74
2022/09/05 09:37:53;;;;;;;5.07;2.60;;;;;;;19.95;74.72;100603.59;5042987;28;20226;-74
2022/09/05 09:40:58;;;;;;;4.78;1.70;;;;;;;19.94;75.28;100612.47;5046878;28;20049;-74
2022/09/05 09:43:49;;;;;;;3.95;2.10;;;;;;;19.68;75.71;100576.59;4984020;28;20586;-74
2022/09/05 09:46:34;;;;;;;8.88;3.28;;;;;;;19.95;75.94;100591.44;5051619;28;20451;-73
2022/09/05 09:49:23;;;;;;;9.00;3.38;;;;;;;20.06;76.85;100604.84;5045976;28;20053;-73
2022/09/05 09:51:52;;;;;;;5.50;2.65;;;;;;;20.05;77.65;100591.88;5049856;28;20175;-74
2022/09/05 09:54:33;;;;;;;2.65;1.60;;;;;;;19.84;78.26;100571.19;5048384;28;20470;-74
2022/09/05 09:57:19;;;;;;;4.47;2.53;;;;;;;20.10;78.73;100611.53;5047411;28;20589;-75
2022/09/05 09:59:52;;;;;;;9.10;2.63;;;;;;;20.11;78.72;100601.84;5046422;28;20061;-76
2022/09/05 10:02:30;;;;;;;9.77;3.13;;;;;;;20.13;78.91;100592.97;5047053;28;20183;-75
2022/09/05 10:05:45;;;;;;;7.72;2.53;;;;;;;20.17;79.24;100596.81;5030871;28;20139;-76
2022/09/05 10:08:51;;;;;;;11.75;4.22;;;;;;;20.21;79.27;100613.97;5051961;28;20131;-75
2022/09/05 10:12:23;;;;;;;7.10;3.40;;;;;;;20.34;79.31;100608.03;5046642;28;20045;-75
2022/09/05 10:15:01;;;;;;;9.23;2.92;;;;;;;20.39;79.39;100612.66;5018012;28;20048;-74
2022/09/05 10:18:00;;;;;;;6.60;3.22;;;;;;;20.49;79.08;100617.09;5048848;28;20049;-75
2022/09/05 10:20:30;;;;;;;7.87;3.37;;;;;;;20.59;79.25;100616.69;5048227;28;20124;-76
2022/09/05 10:23:09;;;;;;;;;;;;;;;20.57;80.00;100619.88;5040919;28;20516;-73
2022/09/05 10:25:54;;;;;;;7.07;3.00;;;;;;;20.61;79.54;100625.66;5042819;28;20357;-74
2022/09/05 10:28:38;;;;;;;9.55;3.60;;;;;;;20.49;79.98;100636.94;5041120;28;20588;-76
2022/09/05 10:31:21;;;;;;;11.60;3.75;;;;;;;20.41;80.36;100638.69;5045381;28;20124;-76
2022/09/05 10:34:23;;;;;;;5.35;3.20;;;;;;;20.30;80.79;100640.22;5044654;28;20140;-76
2022/09/05 10:37:13;;;;;;;10.68;3.53;;;;;;;20.18;80.53;100629.66;5030605;28;20060;-76
2022/09/05 10:39:46;;;;;;;8.70;3.55;;;;;;;20.11;80.53;100623.69;5036938;28;20075;-77
2022/09/05 10:42:30;;;;;;;13.88;4.05;;;;;;;19.98;80.41;100599.25;5051063;28;20719;-77
2022/09/05 10:45:13;;;;;;;9.10;3.38;;;;;;;20.11;80.44;100637.88;5043332;28;20903;-76
2022/09/05 10:48:02;;;;;;;7.43;3.42;;;;;;;19.72;80.97;100599.41;5047988;28;20055;-79
2022/09/05 10:50:43;;;;;;;10.27;3.30;;;;;;;19.81;81.68;100646.34;5047197;28;20132;-77
2022/09/05 10:53:25;;;;;;;7.22;3.58;;;;;;;19.81;81.91;100649.19;5043792;28;20128;-78
2022/09/05 10:56:21;;;;;;;6.72;3.17;;;;;;;19.69;82.56;100640.56;5042301;28;20124;-73
2022/09/05 10:59:03;;;;;;;10.68;3.65;;;;;;;19.77;82.65;100662.38;5046836;28;20048;-74
2022/09/05 11:02:04;;;;;;;9.90;3.88;;;;;;;19.92;82.63;100660.16;5045192;28;20057;-74
2022/09/05 11:04:57;;;;;;;11.40;3.22;;;;;;;20.10;82.89;100673.03;5043819;28;20060;-74
2022/09/05 11:08:00;;;;;;;14.30;4.00;;;;;;;20.45;82.58;100656.66;5043322;28;20057;-76
2022/09/05 11:10:58;;;;;;;10.73;3.25;;;;;;;20.46;82.48;100658.31;5043751;28;20148;-76
2022/09/05 11:13:46;;;;;;;6.47;2.40;;;;;;;20.63;82.42;100665.06;5046317;28;20174;-74
2022/09/05 11:16:33;;;;;;;11.52;4.28;;;;;;;20.67;82.12;100675.38;5045399;28;20136;-75
2022/09/05 11:19:12;;;;;;;3.95;1.88;;;;;;;20.66;82.05;100664.38;5047457;28;20423;-77
2022/09/05 11:21:45;;;;;;;5.80;3.60;;;;;;;20.77;81.51;100662.78;5043766;28;20107;-77
2022/09/05 11:24:43;;;;;;;10.23;3.85;;;;;;;20.90;81.82;100655.16;5041770;28;20544;-80
2022/09/05 11:27:35;;;;;;;4.15;2.03;;;;;;;20.99;81.63;100676.63;5041391;28;20063;-80
2022/09/05 11:30:11;;;;;;;7.10;2.35;;;;;;;21.13;82.20;100641.38;5046675;28;20126;-80
2022/09/05 11:33:34;;;;;;;2.33;1.65;;;;;;;21.62;82.40;100655.75;5048806;28;20139;-76
2022/09/05 11:36:42;;;;;;;11.30;2.03;;;;;;;22.12;82.70;100677.31;5047015;28;20059;-75
2022/09/05 11:39:53;;;;;;;5.50;1.80;;;;;;;21.68;81.66;100662.88;5043117;28;20067;-76
2022/09/05 11:42:49;;;;;;;7.97;1.95;;;;;;;21.47;80.54;100663.78;5045694;28;20128;-76
2022/09/05 11:45:55;;;;;;;6.15;2.05;;;;;;;21.04;80.73;100667.03;5044507;28;20515;-76
2022/09/05 11:48:49;;;;;;;2.53;0.88;;;;;;;20.64;81.29;100670.38;5042958;28;20048;-76
2022/09/05 11:52:01;;;;;;;5.93;2.10;;;;;;;20.52;81.75;100670.31;5048239;28;20517;-75
2022/09/05 11:54:46;;;;;;;5.93;4.15;;;;;;;20.43;82.06;100687.34;5018947;28;20099;-76
2022/09/05 11:57:43;;;;;;;3.40;1.90;;;;;;;20.27;82.16;100683.44;5045060;28;20053;-76
2022/09/05 12:00:11;;;;;;;3.70;1.90;;;;;;;20.37;82.02;100685.91;5044342;28;20040;-76
2022/09/05 12:03:37;;;;;;;5.93;1.98;;;;;;;20.24;82.75;100672.78;5042462;28;20045;-75
2022/09/05 12:06:36;;;;;;;6.35;3.10;;;;;;;20.44;82.19;100689.00;5043708;28;20080;-76
2022/09/05 12:09:50;;;;;;;6.53;3.17;;;;;;;20.46;82.39;100683.00;5046774;28;20049;-76
2022/09/05 12:12:31;;;;;;;7.80;3.03;;;;;;;20.68;82.21;100691.22;5047019;28;20131;-76
2022/09/05 12:15:22;;;;;;;7.93;2.90;;;;;;;20.78;82.27;100670.09;5043790;28;20061;-76
2022/09/05 12:17:59;;;;;;;5.72;2.42;;;;;;;21.01;82.35;100688.44;5043584;28;20064;-75
2022/09/05 12:20:38;;;;;;;5.18;3.28;;;;;;;21.06;82.33;100671.19;5049444;28;20110;-76
2022/09/05 12:23:31;;;;;;;8.85;3.33;;;;;;;21.28;82.57;100674.81;5052213;28;20640;-78
2022/09/05 12:26:30;;;;;;;11.60;4.43;;;;;;;21.43;82.14;100687.56;5045143;28;20522;-77
2022/09/05 12:29:25;;;;;;;8.32;3.70;;;;;;;21.49;82.12;100661.41;5043219;28;20068;-74
2022/09/05 12:32:12;;;;;;;8.90;3.60;;;;;;;21.79;81.95;100680.28;5045052;28;20053;-75
2022/09/05 12:35:02;;;;;;;11.05;3.22;;;;;;;21.70;81.54;100667.00;5045792;28;20487;-75
2022/09/05 12:38:18;;;;;;;6.78;3.10;;;;;;;21.87;82.08;100682.19;5045393;28;20513;-75
2022/09/05 12:41:08;;;;;;;11.82;5.40;;;;;;;21.94;81.34;100694.63;5011820;28;20404;-76
2022/09/05 12:44:00;;;;;;;7.50;2.58;;;;;;;22.05;80.58;100685.63;5040913;28;20499;-76
2022/09/05 12:46:56;;;;;;;5.82;2.30;;;;;;;21.95;81.18;100664.19;5047995;28;20048;-75
2022/09/05 12:50:08;;;;;;;4.93;3.08;;;;;;;22.18;80.91;100687.31;5043820;28;20578;-78
2022/09/05 12:52:45;;;;;;;7.22;2.10;;;;;;;22.24;80.74;100678.19;5043084;28;20048;-76
2022/09/05 12:55:36;;;;;;;11.80;8.23;;;;;;;22.24;81.14;100685.91;5032503;28;20055;-76
2022/09/05 12:58:16;;;;;;;8.02;6.38;;;;;;;22.40;80.99;100668.94;5045182;28;20060;-77
2022/09/05 13:01:14;;;;;;;13.88;3.45;;;;;;;22.50;80.50;100690.41;5042848;28;20484;-77
2022/09/05 13:04:17;;;;;;;10.68;4.18;;;;;;;22.54;81.14;100677.09;5043857;28;20053;-77
2022/09/05 13:06:57;;;;;;;15.05;4.50;;;;;;;22.27;80.70;100668.13;5043258;28;20047;-78